KAPA/APA METAR and TAF weather

Enter ICAO airport designator
Station Type Date Time Source
KAPA METAR 2022/12/05 12:53 UTC NOAA

KAPA 051253Z 21003KT 10SM FEW220 05/M06 A2976 RMK AO2 SLP068 T00501061


Station Type Date Time Source
KAPA Decoded METAR 2022/12/05 12:53 UTC NOAA

DENVER CENTENNIAL AIRPORT, CO, United States (KAPA) 39-34N 104-51W 1775M
Dec 05, 2022 - 07:53 AM EST / 2022.12.05 1253 UTC
Wind: from the SSW (210 degrees) at 3 MPH (3 KT):0
Visibility: 10 mile(s):0
Sky conditions: mostly clear
Temperature: 41.0 F (5.0 C)
Dew Point: 21.0 F (-6.1 C)
Relative Humidity: 44%
Pressure (altimeter): 29.76 in. Hg (1007 hPa)
ob: KAPA 051253Z 21003KT 10SM FEW220 05/M06 A2976 RMK AO2 SLP068 T00501061
cycle: 13

Station Type Date Time Source
KAPA TAF 2022/12/05 12:39 UTC NOAA

TAF KAPA 051137Z 0512/0612 18007KT P6SM FEW120 SCT200
FM051700 29008KT P6SM SCT120 BKN220
FM052300 08009KT P6SM FEW080 SCT140 BKN220
FM060200 14010KT P6SM SCT080 BKN140
FM060400 22007KT P6SM SCT080 BKN110
FM061100 34009KT P6SM FEW050 SCT090

Example: see airport list